Time;durP1;ratioP1;P1;durP2;ratioP2;P2;SDS_P1;SDS_P2;PMS_P1;PMS_P2;Temp;Humidity;BMP_temperature;BMP_pressure;BME280_temperature;BME280_humidity;BME280_pressure;Samples;Min_cycle;Max_cycle;Signal;HPM_P1;HPM_P2
2023/08/24 00:01:12;;;;;;;0.80;0.52;;;28.70;63.60;;;;;;6335142;22;20223;-85
2023/08/24 00:03:40;;;;;;;0.65;0.65;;;28.70;64.00;;;;;;6337109;22;20208;-86
2023/08/24 00:06:10;;;;;;;0.75;0.75;;;28.70;64.20;;;;;;6335798;22;20168;-84
2023/08/24 00:08:39;;;;;;;1.63;1.05;;;28.60;64.50;;;;;;6337352;22;20171;-87
2023/08/24 00:11:07;;;;;;;0.98;0.50;;;28.60;64.40;;;;;;6334905;22;20171;-85
2023/08/24 00:13:37;;;;;;;1.55;0.52;;;28.60;64.50;;;;;;6337127;22;20634;-86
2023/08/24 00:16:06;;;;;;;3.65;1.85;;;28.60;64.80;;;;;;6335402;22;20247;-85
2023/08/24 00:18:40;;;;;;;1.50;1.05;;;28.60;64.70;;;;;;6338168;22;20165;-85
2023/08/24 00:21:09;;;;;;;0.30;0.30;;;28.50;64.90;;;;;;6335499;22;20609;-86
2023/08/24 00:23:38;;;;;;;2.78;0.47;;;28.50;64.70;;;;;;6336208;22;20611;-85
2023/08/24 00:26:07;;;;;;;0.45;0.45;;;28.50;65.00;;;;;;6336567;22;20191;-87
2023/08/24 00:28:36;;;;;;;1.92;1.40;;;28.50;65.50;;;;;;6336618;22;20165;-86
2023/08/24 00:31:05;;;;;;;1.50;1.15;;;28.40;65.50;;;;;;6336480;22;20482;-85
2023/08/24 00:33:34;;;;;;;0.80;0.80;;;28.40;65.30;;;;;;6336022;22;20682;-87
2023/08/24 00:36:04;;;;;;;0.50;0.50;;;28.40;65.40;;;;;;6336412;22;20248;-85
2023/08/24 00:38:34;;;;;;;0.95;0.63;;;28.40;65.50;;;;;;6336768;22;20165;-87
2023/08/24 00:41:03;;;;;;;0.63;0.40;;;28.30;65.60;;;;;;6335317;22;20192;-86
2023/08/24 00:43:31;;;;;;;0.70;0.47;;;28.30;65.60;;;;;;6336647;22;20172;-87
2023/08/24 00:46:04;;;;;;;0.40;0.40;;;28.30;65.60;;;;;;6334759;22;20188;-87
2023/08/24 00:48:32;;;;;;;1.33;0.85;;;28.30;65.80;;;;;;6336683;22;20171;-86
2023/08/24 00:51:02;;;;;;;0.98;0.70;;;28.20;65.70;;;;;;6336135;22;20508;-86
2023/08/24 00:53:32;;;;;;;4.38;2.60;;;28.30;65.70;;;;;;6336760;22;20170;-86
2023/08/24 00:56:01;;;;;;;0.65;0.65;;;28.20;65.80;;;;;;6336320;22;20195;-85
2023/08/24 00:58:31;;;;;;;0.70;0.60;;;28.20;66.00;;;;;;6336410;22;20168;-86
2023/08/24 01:01:01;;;;;;;0.82;0.60;;;28.20;66.10;;;;;;6336415;22;20239;-86
2023/08/24 01:03:29;;;;;;;0.73;0.70;;;28.20;66.30;;;;;;6336699;22;20207;-87
2023/08/24 01:05:58;;;;;;;2.47;1.42;;;28.20;66.50;;;;;;6336040;22;20644;-86
2023/08/24 01:08:26;;;;;;;1.33;0.70;;;28.20;66.30;;;;;;6336670;22;20589;-85
2023/08/24 01:11:03;;;;;;;0.50;0.50;;;28.20;66.30;;;;;;6336979;22;20169;-86
2023/08/24 01:13:41;;;;;;;2.22;2.03;;;28.10;66.60;;;;;;6336377;22;20160;-86
2023/08/24 01:16:17;;;;;;;0.73;0.73;;;28.10;66.70;;;;;;6335626;22;20235;-86
2023/08/24 01:18:46;;;;;;;5.60;1.33;;;28.10;66.70;;;;;;6336998;22;20161;-87
2023/08/24 01:21:16;;;;;;;0.63;0.38;;;28.10;66.60;;;;;;6336410;22;20165;-86
2023/08/24 01:23:51;;;;;;;0.73;0.60;;;28.00;66.30;;;;;;6337240;22;20161;-86
2023/08/24 01:26:22;;;;;;;0.60;0.60;;;28.10;66.10;;;;;;6334529;22;20191;-85
2023/08/24 01:28:51;;;;;;;0.45;0.45;;;28.10;66.10;;;;;;6334478;22;20492;-84
2023/08/24 01:31:20;;;;;;;1.10;1.05;;;28.10;66.70;;;;;;6335305;22;20170;-86
2023/08/24 01:33:48;;;;;;;0.63;0.45;;;28.10;66.80;;;;;;6334278;22;20171;-85
2023/08/24 01:36:17;;;;;;;4.70;1.50;;;28.10;66.80;;;;;;6334709;22;20609;-85
2023/08/24 01:38:56;;;;;;;0.90;0.80;;;28.10;67.30;;;;;;6335667;22;20165;-85
2023/08/24 01:41:30;;;;;;;1.08;0.82;;;28.10;67.30;;;;;;6336097;22;20157;-86
2023/08/24 01:44:02;;;;;;;0.40;0.40;;;28.10;66.90;;;;;;6333983;22;20158;-85
2023/08/24 01:46:32;;;;;;;0.70;0.70;;;28.10;67.10;;;;;;6335013;22;20223;-86
2023/08/24 01:49:01;;;;;;;1.65;1.13;;;28.10;67.20;;;;;;6334873;22;20169;-86
2023/08/24 01:51:31;;;;;;;0.50;0.50;;;28.10;67.50;;;;;;6335502;22;20165;-86
2023/08/24 01:54:00;;;;;;;0.98;0.75;;;28.00;67.90;;;;;;6334135;22;20164;-85
2023/08/24 01:56:30;;;;;;;0.60;0.47;;;28.00;67.90;;;;;;6335458;22;20589;-84
2023/08/24 01:58:58;;;;;;;0.63;0.63;;;28.00;67.60;;;;;;6334819;22;20153;-85
2023/08/24 02:01:27;;;;;;;1.35;1.02;;;28.00;67.40;;;;;;6335289;22;20165;-86
2023/08/24 02:03:56;;;;;;;10.40;1.00;;;28.00;67.50;;;;;;6334059;22;20163;-87
2023/08/24 02:06:26;;;;;;;1.08;0.93;;;28.00;67.60;;;;;;6335524;22;20200;-86
2023/08/24 02:08:54;;;;;;;1.02;0.50;;;28.00;67.50;;;;;;6335123;22;20624;-86
2023/08/24 02:11:23;;;;;;;1.55;0.93;;;27.90;67.50;;;;;;6335486;22;20165;-85
2023/08/24 02:13:53;;;;;;;1.92;1.25;;;27.90;67.80;;;;;;6334143;22;20160;-85
2023/08/24 02:16:21;;;;;;;1.17;0.90;;;27.90;67.80;;;;;;6334973;22;20226;-87
2023/08/24 02:18:50;;;;;;;1.30;0.38;;;27.90;67.70;;;;;;6334931;22;20175;-86
2023/08/24 02:21:19;;;;;;;0.55;0.55;;;27.80;67.60;;;;;;6333280;22;20165;-87
2023/08/24 02:23:47;;;;;;;0.68;0.68;;;27.80;67.90;;;;;;6335302;22;20622;-86
2023/08/24 02:26:16;;;;;;;0.60;0.52;;;27.80;68.20;;;;;;6335784;22;20512;-87
2023/08/24 02:28:45;;;;;;;0.73;0.73;;;27.80;68.00;;;;;;6334171;22;20534;-86
2023/08/24 02:31:16;;;;;;;0.55;0.55;;;27.80;68.80;;;;;;6335548;22;20161;-86
2023/08/24 02:33:44;;;;;;;1.65;0.80;;;27.70;67.80;;;;;;6335393;22;20184;-85
2023/08/24 02:36:13;;;;;;;1.17;1.00;;;27.80;67.90;;;;;;6333157;22;20584;-86
2023/08/24 02:38:41;;;;;;;1.30;0.95;;;27.80;68.00;;;;;;6334317;22;20729;-86
2023/08/24 02:41:10;;;;;;;0.60;0.60;;;27.70;67.70;;;;;;6334673;22;20667;-87
2023/08/24 02:43:39;;;;;;;1.85;0.98;;;27.70;67.90;;;;;;6334848;22;20870;-86
2023/08/24 02:46:09;;;;;;;3.67;1.77;;;27.70;68.00;;;;;;6333999;22;20555;-85
2023/08/24 02:48:40;;;;;;;0.77;0.50;;;27.70;68.00;;;;;;6335735;22;20165;-86
2023/08/24 02:51:10;;;;;;;0.30;0.30;;;27.70;67.90;;;;;;6334889;22;20623;-87
2023/08/24 02:53:38;;;;;;;1.10;0.82;;;27.60;67.70;;;;;;6336950;22;20617;-85
2023/08/24 02:56:06;;;;;;;3.40;1.10;;;27.70;67.60;;;;;;6335947;22;20206;-87
2023/08/24 02:58:35;;;;;;;0.60;0.60;;;27.70;67.70;;;;;;6337303;22;20551;-85
2023/08/24 03:01:06;;;;;;;0.52;0.40;;;27.60;68.30;;;;;;6333961;22;20176;-86
2023/08/24 03:03:35;;;;;;;0.35;0.35;;;27.60;67.40;;;;;;6337573;22;20180;-84
2023/08/24 03:06:06;;;;;;;0.38;0.35;;;27.60;67.40;;;;;;6336228;22;20242;-84
2023/08/24 03:08:36;;;;;;;0.50;0.43;;;27.60;67.30;;;;;;6337146;22;20179;-86
2023/08/24 03:11:04;;;;;;;0.30;0.30;;;27.60;67.20;;;;;;6336245;22;20164;-85
2023/08/24 03:13:33;;;;;;;0.45;0.40;;;27.60;67.20;;;;;;6337289;22;20601;-85
2023/08/24 03:16:05;;;;;;;0.65;0.63;;;27.60;67.20;;;;;;6335274;22;20168;-86
2023/08/24 03:18:34;;;;;;;0.50;0.50;;;27.60;67.10;;;;;;6338271;22;20159;-88
2023/08/24 03:21:04;;;;;;;2.13;1.65;;;27.60;67.10;;;;;;6334677;22;20161;-86
2023/08/24 03:23:33;;;;;;;0.38;0.38;;;27.60;67.10;;;;;;6335370;22;20152;-86
2023/08/24 03:26:01;;;;;;;0.60;0.60;;;27.50;67.00;;;;;;6335358;22;20522;-86
2023/08/24 03:28:30;;;;;;;0.52;0.52;;;27.50;67.00;;;;;;6336377;22;20169;-86
2023/08/24 03:30:58;;;;;;;0.20;0.20;;;27.50;67.00;;;;;;6337190;22;20243;-86
2023/08/24 03:33:27;;;;;;;0.45;0.45;;;27.50;67.10;;;;;;6336067;22;20167;-86
2023/08/24 03:35:56;;;;;;;2.15;0.77;;;27.50;67.10;;;;;;6335636;22;20609;-86
2023/08/24 03:38:26;;;;;;;0.65;0.45;;;27.50;67.10;;;;;;6337050;22;20169;-87
2023/08/24 03:41:02;;;;;;;0.82;0.50;;;27.40;67.20;;;;;;6335437;22;20188;-88
2023/08/24 03:43:33;;;;;;;0.57;0.40;;;27.40;67.20;;;;;;6335605;22;20250;-88
2023/08/24 03:46:02;;;;;;;2.30;0.93;;;27.40;67.20;;;;;;6334557;22;20188;-87
2023/08/24 03:48:30;;;;;;;0.65;0.30;;;27.40;67.20;;;;;;6336975;22;20169;-86
2023/08/24 03:50:59;;;;;;;0.88;0.70;;;27.40;67.20;;;;;;6334738;22;20672;-87
2023/08/24 03:53:29;;;;;;;0.98;0.80;;;27.40;67.20;;;;;;6335770;22;20239;-86
2023/08/24 03:55:58;;;;;;;1.35;1.08;;;27.40;67.20;;;;;;6336707;22;20241;-87
2023/08/24 03:58:27;;;;;;;0.50;0.40;;;27.40;67.20;;;;;;6336506;22;20240;-86
2023/08/24 04:00:55;;;;;;;0.60;0.43;;;27.30;67.20;;;;;;6335007;22;20168;-84
2023/08/24 04:03:24;;;;;;;3.88;0.57;;;27.30;67.10;;;;;;6335885;22;20242;-85
2023/08/24 04:05:52;;;;;;;1.65;0.68;;;27.30;67.10;;;;;;6336790;22;20184;-84
2023/08/24 04:08:21;;;;;;;0.47;0.43;;;27.30;67.20;;;;;;6337446;22;20175;-85
2023/08/24 04:10:51;;;;;;;0.35;0.35;;;27.30;67.20;;;;;;6334202;22;20165;-87
2023/08/24 04:13:20;;;;;;;2.15;1.15;;;27.30;67.20;;;;;;6336118;22;20168;-85
2023/08/24 04:15:48;;;;;;;0.98;0.60;;;27.30;67.20;;;;;;6333714;22;20230;-86
2023/08/24 04:18:17;;;;;;;0.52;0.52;;;27.30;67.30;;;;;;6335241;22;20171;-87
2023/08/24 04:21:05;;;;;;;0.40;0.40;;;27.30;67.30;;;;;;6333196;22;20172;-86
2023/08/24 04:23:34;;;;;;;2.05;0.77;;;27.30;67.30;;;;;;6337323;22;20598;-86
2023/08/24 04:26:05;;;;;;;0.63;0.63;;;27.30;67.30;;;;;;6335061;22;20192;-88
2023/08/24 04:28:33;;;;;;;0.60;0.60;;;27.30;67.30;;;;;;6336190;22;20164;-87
2023/08/24 04:31:02;;;;;;;0.77;0.77;;;27.30;67.30;;;;;;6334831;22;20700;-88
2023/08/24 04:33:30;;;;;;;0.40;0.40;;;27.30;67.30;;;;;;6334523;22;20299;-86
2023/08/24 04:35:59;;;;;;;1.00;0.70;;;27.30;67.50;;;;;;6334198;22;20164;-86
2023/08/24 04:38:29;;;;;;;0.35;0.35;;;27.30;67.50;;;;;;6334778;22;20165;-85
2023/08/24 04:41:00;;;;;;;1.05;0.70;;;27.30;67.90;;;;;;6336455;22;20230;-86
2023/08/24 04:43:30;;;;;;;1.10;0.73;;;27.30;68.00;;;;;;6336726;22;20164;-86
2023/08/24 04:45:58;;;;;;;0.55;0.45;;;27.40;68.30;;;;;;6336177;22;20160;-88
2023/08/24 04:48:33;;;;;;;1.23;0.70;;;27.40;69.00;;;;;;6334716;22;20172;-88
2023/08/24 04:51:02;;;;;;;1.20;0.73;;;27.40;68.80;;;;;;6335138;22;20628;-86
2023/08/24 04:53:31;;;;;;;1.13;0.82;;;27.40;68.80;;;;;;6337681;22;20168;-89
2023/08/24 04:56:00;;;;;;;0.47;0.47;;;27.50;69.10;;;;;;6335598;22;20720;-84
2023/08/24 04:58:30;;;;;;;1.20;0.73;;;27.50;69.20;;;;;;6334624;22;20170;-89
2023/08/24 05:00:58;;;;;;;1.50;0.88;;;27.60;69.20;;;;;;6333159;22;20263;-85
2023/08/24 05:03:27;;;;;;;0.55;0.47;;;27.60;69.20;;;;;;6334983;22;20168;-87
2023/08/24 05:05:56;;;;;;;1.00;0.60;;;27.70;69.60;;;;;;6335770;22;20191;-87
2023/08/24 05:08:24;;;;;;;1.38;0.77;;;27.70;69.90;;;;;;6337044;22;20199;-86
2023/08/24 05:10:54;;;;;;;0.63;0.60;;;27.80;69.80;;;;;;6335142;22;20167;-86
2023/08/24 05:13:23;;;;;;;1.00;0.90;;;27.80;69.70;;;;;;6333670;22;20731;-87
2023/08/24 05:15:53;;;;;;;2.13;1.48;;;27.90;69.60;;;;;;6334394;22;20552;-86
2023/08/24 05:18:21;;;;;;;0.63;0.63;;;27.90;69.30;;;;;;6335533;22;20207;-86
2023/08/24 05:20:50;;;;;;;1.08;0.80;;;28.00;69.20;;;;;;6333742;22;20171;-86
2023/08/24 05:23:25;;;;;;;0.75;0.75;;;28.00;69.10;;;;;;6333144;22;20252;-87
2023/08/24 05:25:53;;;;;;;0.82;0.82;;;28.10;68.90;;;;;;6335338;22;20497;-88
2023/08/24 05:28:31;;;;;;;0.77;0.65;;;28.10;68.90;;;;;;6334023;22;20585;-88
2023/08/24 05:31:04;;;;;;;1.30;0.80;;;28.10;68.60;;;;;;6334056;22;20157;-86
2023/08/24 05:33:33;;;;;;;3.88;1.13;;;28.20;68.60;;;;;;6333143;22;20561;-87
2023/08/24 05:36:02;;;;;;;0.70;0.63;;;28.20;68.60;;;;;;6335039;22;20168;-87
2023/08/24 05:38:30;;;;;;;0.50;0.40;;;28.30;68.50;;;;;;6334129;22;20187;-87
2023/08/24 05:41:00;;;;;;;3.50;1.40;;;28.30;68.30;;;;;;6333572;22;20660;-86
2023/08/24 05:43:29;;;;;;;0.40;0.40;;;28.40;68.20;;;;;;6334298;22;20217;-86
2023/08/24 05:45:57;;;;;;;0.50;0.50;;;28.40;68.00;;;;;;6332661;22;20400;-86
2023/08/24 05:48:41;;;;;;;0.68;0.68;;;28.50;68.00;;;;;;6307947;22;20437;-90
2023/08/24 05:51:12;;;;;;;0.60;0.60;;;28.50;67.80;;;;;;6335203;22;20647;-87
2023/08/24 05:54:23;;;;;;;;;;;;;;;;;;;;;
2023/08/24 05:57:06;;;;;;;0.30;0.30;;;28.60;67.60;;;;;;6322857;22;20173;-85
2023/08/24 05:59:35;;;;;;;0.95;0.95;;;28.70;67.60;;;;;;6332775;22;20196;-85
2023/08/24 06:02:04;;;;;;;0.82;0.75;;;28.70;67.40;;;;;;6330791;22;20172;-83
2023/08/24 06:07:47;;;;;;;0.32;0.32;;;28.90;67.20;;;;;;6326974;22;20530;-86
2023/08/24 06:10:16;;;;;;;0.55;0.50;;;28.90;67.00;;;;;;6335228;22;20175;-84
2023/08/24 06:12:45;;;;;;;0.50;0.50;;;28.90;66.90;;;;;;6335618;22;20157;-82
2023/08/24 06:15:13;;;;;;;0.43;0.35;;;28.90;66.60;;;;;;6333980;22;20169;-83
2023/08/24 06:17:42;;;;;;;1.75;1.23;;;28.90;66.30;;;;;;6331235;22;20168;-84
2023/08/24 06:20:12;;;;;;;3.28;0.82;;;29.00;66.30;;;;;;6331977;22;20207;-83
2023/08/24 06:22:41;;;;;;;0.70;0.70;;;29.00;66.30;;;;;;6333907;22;20172;-84
2023/08/24 06:25:11;;;;;;;7.00;1.33;;;29.00;66.20;;;;;;6334132;22;20175;-83
2023/08/24 06:27:40;;;;;;;1.25;0.77;;;29.10;66.30;;;;;;6337795;22;20188;-83
2023/08/24 06:30:09;;;;;;;0.65;0.47;;;29.10;66.20;;;;;;6336878;22;20164;-85
2023/08/24 06:32:37;;;;;;;1.75;1.40;;;29.10;66.20;;;;;;6337400;22;20533;-84
2023/08/24 06:35:07;;;;;;;0.60;0.60;;;29.20;66.20;;;;;;6336307;22;20175;-84
2023/08/24 06:37:37;;;;;;;0.70;0.40;;;29.20;66.10;;;;;;6337807;22;20161;-84
2023/08/24 06:40:06;;;;;;;0.50;0.50;;;29.30;66.20;;;;;;6335186;22;20168;-83
2023/08/24 06:42:37;;;;;;;0.75;0.75;;;29.30;66.20;;;;;;6309742;22;20164;-88
2023/08/24 06:45:06;;;;;;;0.50;0.50;;;29.40;66.30;;;;;;6337022;22;20174;-87
2023/08/24 06:47:35;;;;;;;2.35;0.98;;;29.50;66.30;;;;;;6336154;22;20195;-87
2023/08/24 06:50:03;;;;;;;0.45;0.25;;;29.60;66.30;;;;;;6335217;22;20218;-88
2023/08/24 06:52:44;;;;;;;0.50;0.30;;;29.70;66.40;;;;;;6339025;22;20188;-93
2023/08/24 06:55:19;;;;;;;0.45;0.40;;;29.80;66.20;;;;;;6339760;22;20206;-93
2023/08/24 06:57:51;;;;;;;1.27;1.05;;;29.90;65.80;;;;;;6338780;22;20168;-89
2023/08/24 07:00:21;;;;;;;0.50;0.50;;;29.90;65.50;;;;;;6336001;22;20566;-87
2023/08/24 07:02:53;;;;;;;0.95;0.85;;;30.00;65.20;;;;;;6334466;22;20165;-89
2023/08/24 07:05:21;;;;;;;0.25;0.22;;;30.10;65.00;;;;;;6337239;22;20481;-88
2023/08/24 07:07:51;;;;;;;1.75;0.68;;;30.10;64.70;;;;;;6338064;22;20204;-87
2023/08/24 07:10:20;;;;;;;0.82;0.73;;;30.20;64.70;;;;;;6336211;22;20677;-88
2023/08/24 07:12:50;;;;;;;0.30;0.30;;;30.20;64.40;;;;;;6337055;22;20165;-86
2023/08/24 07:15:18;;;;;;;0.50;0.50;;;30.30;64.50;;;;;;6334961;22;20167;-86
2023/08/24 07:17:47;;;;;;;0.47;0.30;;;30.40;64.40;;;;;;6338250;22;20171;-87
2023/08/24 07:20:18;;;;;;;1.10;0.60;;;30.40;64.30;;;;;;6335024;22;20527;-89
2023/08/24 07:22:48;;;;;;;1.85;0.90;;;30.50;64.40;;;;;;6334637;22;20196;-86
2023/08/24 07:25:17;;;;;;;0.30;0.30;;;30.50;64.40;;;;;;6334831;22;20169;-86
2023/08/24 07:27:45;;;;;;;0.50;0.50;;;30.50;64.40;;;;;;6337873;22;20196;-89
2023/08/24 07:30:16;;;;;;;0.73;0.52;;;30.50;64.30;;;;;;6334315;22;20168;-86
2023/08/24 07:33:00;;;;;;;0.40;0.40;;;30.50;64.20;;;;;;6335880;22;20221;-87
2023/08/24 07:35:29;;;;;;;0.63;0.63;;;30.60;64.20;;;;;;6336507;22;20169;-86
2023/08/24 07:37:57;;;;;;;1.27;0.40;;;30.60;63.80;;;;;;6335297;22;20612;-87
2023/08/24 07:40:26;;;;;;;0.93;0.70;;;30.70;63.60;;;;;;6337090;22;20551;-86
2023/08/24 07:42:56;;;;;;;1.95;0.63;;;30.70;63.60;;;;;;6337084;22;20609;-86
2023/08/24 07:45:26;;;;;;;1.55;1.05;;;30.70;63.40;;;;;;6334508;22;20779;-87
2023/08/24 07:47:55;;;;;;;0.43;0.43;;;30.80;63.40;;;;;;6332749;22;20653;-85
2023/08/24 07:50:24;;;;;;;1.38;0.50;;;30.80;63.50;;;;;;6335785;22;20677;-84
2023/08/24 07:52:52;;;;;;;0.75;0.75;;;30.80;64.20;;;;;;6333585;22;20243;-88
2023/08/24 07:55:25;;;;;;;0.65;0.47;;;30.80;63.10;;;;;;6335276;22;20192;-85
2023/08/24 07:57:54;;;;;;;1.45;1.30;;;30.80;63.20;;;;;;6337192;22;20197;-86
2023/08/24 08:00:24;;;;;;;1.05;0.73;;;30.80;63.10;;;;;;6337114;22;20268;-85
2023/08/24 08:02:56;;;;;;;0.65;0.50;;;30.80;63.20;;;;;;6336737;22;20225;-86
2023/08/24 08:05:28;;;;;;;0.52;0.45;;;30.80;63.00;;;;;;6337305;22;20184;-89
2023/08/24 08:08:01;;;;;;;0.93;0.75;;;30.80;63.30;;;;;;6335064;22;20191;-86
2023/08/24 08:10:33;;;;;;;0.40;0.40;;;30.80;63.50;;;;;;6337216;22;20239;-88
2023/08/24 08:13:01;;;;;;;0.50;0.50;;;30.80;63.00;;;;;;6335722;22;20172;-87
2023/08/24 08:15:30;;;;;;;0.73;0.60;;;30.80;62.90;;;;;;6336440;22;20890;-85
2023/08/24 08:18:04;;;;;;;0.73;0.63;;;30.80;63.10;;;;;;6336480;22;20168;-87
2023/08/24 08:20:33;;;;;;;0.98;0.90;;;30.80;63.30;;;;;;6337245;22;20153;-87
2023/08/24 08:23:01;;;;;;;0.85;0.57;;;30.90;63.30;;;;;;6336680;22;20167;-83
2023/08/24 08:25:31;;;;;;;0.32;0.32;;;30.90;63.40;;;;;;6336248;22;20249;-85
2023/08/24 08:28:02;;;;;;;1.35;1.23;;;31.00;63.20;;;;;;6335279;22;20605;-82
2023/08/24 08:30:31;;;;;;;2.15;0.60;;;31.10;63.00;;;;;;6334706;22;20175;-83
2023/08/24 08:33:01;;;;;;;1.35;1.00;;;31.10;62.70;;;;;;6336381;22;20238;-87
2023/08/24 08:35:29;;;;;;;0.70;0.70;;;31.20;62.80;;;;;;6337548;22;20168;-89
2023/08/24 08:37:58;;;;;;;0.77;0.45;;;31.20;63.20;;;;;;6335129;22;20617;-86
2023/08/24 08:40:30;;;;;;;0.40;0.40;;;31.30;62.20;;;;;;6336376;22;20164;-87
2023/08/24 08:42:59;;;;;;;0.60;0.60;;;31.40;62.00;;;;;;6334431;22;20153;-85
2023/08/24 08:45:29;;;;;;;0.75;0.73;;;31.40;61.90;;;;;;6336801;22;20184;-85
2023/08/24 08:48:00;;;;;;;0.70;0.63;;;31.50;61.10;;;;;;6335177;22;20161;-85
2023/08/24 08:50:32;;;;;;;0.50;0.50;;;31.60;60.80;;;;;;6336076;22;20168;-83
2023/08/24 08:53:08;;;;;;;2.45;1.35;;;31.70;61.00;;;;;;6332607;22;20157;-86
2023/08/24 08:55:45;;;;;;;0.88;0.60;;;31.80;60.40;;;;;;6332430;22;20192;-87
2023/08/24 08:58:18;;;;;;;0.93;0.65;;;31.80;60.30;;;;;;6334446;22;20780;-88
2023/08/24 09:00:48;;;;;;;1.27;0.70;;;31.90;60.00;;;;;;6336423;22;20167;-87
2023/08/24 09:03:21;;;;;;;1.60;1.10;;;32.00;60.20;;;;;;6335446;22;20268;-87
2023/08/24 09:05:53;;;;;;;1.58;0.57;;;32.00;59.50;;;;;;6335877;22;20160;-89
2023/08/24 09:08:22;;;;;;;1.05;0.95;;;32.10;59.70;;;;;;6334930;22;20198;-85
2023/08/24 09:10:51;;;;;;;1.00;0.75;;;32.20;59.30;;;;;;6335019;22;20498;-87
2023/08/24 09:13:19;;;;;;;0.60;0.60;;;32.30;59.50;;;;;;6333918;22;20609;-84
2023/08/24 09:16:03;;;;;;;0.82;0.80;;;32.30;59.20;;;;;;6336633;22;20209;-92
2023/08/24 09:18:47;;;;;;;1.80;0.90;;;32.40;58.90;;;;;;6336479;22;20192;-89
2023/08/24 09:21:16;;;;;;;2.53;1.13;;;32.50;58.80;;;;;;6335660;22;20647;-87
2023/08/24 09:23:46;;;;;;;4.68;1.02;;;32.60;58.70;;;;;;6335126;22;20175;-88
2023/08/24 09:26:15;;;;;;;0.90;0.50;;;32.70;58.60;;;;;;6336951;22;20243;-88
2023/08/24 09:28:55;;;;;;;0.40;0.40;;;32.70;58.50;;;;;;6336421;22;20631;-87
2023/08/24 09:31:37;;;;;;;0.35;0.35;;;32.70;58.60;;;;;;6336168;22;20164;-88
2023/08/24 09:34:07;;;;;;;18.60;1.17;;;32.80;58.00;;;;;;6335836;22;20247;-89
2023/08/24 09:36:37;;;;;;;1.83;0.50;;;32.70;57.40;;;;;;6335063;22;20272;-87
2023/08/24 09:39:08;;;;;;;0.60;0.60;;;32.70;57.60;;;;;;6334566;22;20175;-89
2023/08/24 09:41:40;;;;;;;0.52;0.50;;;32.80;57.90;;;;;;6335299;22;20688;-88
2023/08/24 09:44:13;;;;;;;0.40;0.40;;;32.80;57.80;;;;;;6334402;22;20176;-84
2023/08/24 09:46:41;;;;;;;2.58;1.10;;;32.90;57.70;;;;;;6336015;22;20164;-82
2023/08/24 09:49:12;;;;;;;0.60;0.60;;;32.90;57.50;;;;;;6334699;22;20196;-83
2023/08/24 09:51:41;;;;;;;3.17;0.82;;;32.90;57.40;;;;;;6334927;22;20511;-83
2023/08/24 09:54:12;;;;;;;0.40;0.40;;;33.00;57.40;;;;;;6333468;22;20173;-85
2023/08/24 09:56:43;;;;;;;0.40;0.40;;;33.10;57.50;;;;;;6334720;22;20192;-85
2023/08/24 09:59:17;;;;;;;0.70;0.70;;;33.10;57.30;;;;;;6335109;22;20173;-83
2023/08/24 10:01:48;;;;;;;0.55;0.50;;;33.20;57.10;;;;;;6333952;22;20182;-86
2023/08/24 10:04:23;;;;;;;0.75;0.73;;;33.20;57.10;;;;;;6335062;22;20160;-82
2023/08/24 10:06:59;;;;;;;1.15;0.50;;;33.30;57.00;;;;;;6334851;22;20198;-83
2023/08/24 10:09:32;;;;;;;0.55;0.55;;;33.30;56.80;;;;;;6335251;22;20279;-83
2023/08/24 10:12:03;;;;;;;0.52;0.40;;;33.40;56.80;;;;;;6335090;22;20161;-84
2023/08/24 10:14:37;;;;;;;2.60;1.33;;;33.50;56.70;;;;;;6335689;22;20160;-85
2023/08/24 10:17:06;;;;;;;0.93;0.60;;;33.50;56.80;;;;;;6335859;22;20478;-83
2023/08/24 10:19:37;;;;;;;0.57;0.45;;;33.50;56.40;;;;;;6335760;22;20172;-83
2023/08/24 10:22:08;;;;;;;3.25;0.85;;;33.60;56.70;;;;;;6334868;22;20169;-84
2023/08/24 10:24:37;;;;;;;2.22;1.08;;;33.60;56.60;;;;;;6336668;22;20525;-83
2023/08/24 10:27:10;;;;;;;1.45;0.60;;;33.80;56.70;;;;;;6335288;22;20153;-83
2023/08/24 10:29:39;;;;;;;7.03;0.80;;;33.80;56.80;;;;;;6336525;22;20222;-85
2023/08/24 10:32:09;;;;;;;1.05;0.73;;;33.80;56.50;;;;;;6335150;22;20172;-83
2023/08/24 10:34:39;;;;;;;14.30;2.17;;;33.90;56.30;;;;;;6333327;22;20172;-83
2023/08/24 10:37:12;;;;;;;1.30;0.73;;;34.00;56.30;;;;;;6333675;22;20559;-84
2023/08/24 10:39:45;;;;;;;1.70;0.95;;;34.00;56.20;;;;;;6335200;22;20176;-83
2023/08/24 10:42:15;;;;;;;1.33;1.23;;;34.10;56.00;;;;;;6335716;22;20161;-84
2023/08/24 10:44:46;;;;;;;1.52;0.68;;;34.10;55.70;;;;;;6333795;22;20614;-86
2023/08/24 10:47:19;;;;;;;0.63;0.55;;;34.20;55.70;;;;;;6335510;22;20156;-85
2023/08/24 10:50:00;;;;;;;0.77;0.60;;;34.30;55.80;;;;;;6333560;22;20180;-86
2023/08/24 10:52:33;;;;;;;3.15;1.02;;;34.30;55.20;;;;;;6334796;22;20715;-87
2023/08/24 10:55:03;;;;;;;0.40;0.40;;;34.30;54.60;;;;;;6333554;22;20925;-86
2023/08/24 10:57:39;;;;;;;2.08;1.13;;;34.30;54.50;;;;;;6334971;22;20167;-87
2023/08/24 11:00:09;;;;;;;1.10;0.80;;;34.30;54.00;;;;;;6334062;22;20215;-84
2023/08/24 11:02:46;;;;;;;0.77;0.73;;;34.30;53.90;;;;;;6335474;22;20160;-87
2023/08/24 11:05:22;;;;;;;2.13;1.00;;;34.30;53.80;;;;;;6334545;22;20594;-86
2023/08/24 11:07:55;;;;;;;1.02;0.88;;;34.40;54.10;;;;;;6334911;22;20164;-86
2023/08/24 11:10:25;;;;;;;0.47;0.35;;;34.50;54.30;;;;;;6333735;22;20188;-82
2023/08/24 11:13:13;;;;;;;0.65;0.55;;;34.50;54.10;;;;;;6337350;22;20164;-83
2023/08/24 11:15:43;;;;;;;0.45;0.45;;;34.50;54.10;;;;;;6335706;22;20153;-85
2023/08/24 11:18:26;;;;;;;1.30;0.93;;;34.60;54.20;;;;;;6336785;22;20663;-85
2023/08/24 11:20:57;;;;;;;2.38;0.80;;;34.60;54.00;;;;;;6337596;22;20157;-85
2023/08/24 11:23:26;;;;;;;1.08;0.95;;;34.60;53.80;;;;;;6336115;22;20226;-85
2023/08/24 11:25:57;;;;;;;0.60;0.57;;;34.70;54.00;;;;;;6335890;22;20172;-84
2023/08/24 11:28:27;;;;;;;2.75;0.80;;;34.70;54.00;;;;;;6337158;22;20516;-86
2023/08/24 11:30:57;;;;;;;0.88;0.68;;;34.70;53.80;;;;;;6336347;22;20278;-85
2023/08/24 11:33:30;;;;;;;2.25;0.95;;;34.70;53.70;;;;;;6336411;22;20617;-83
2023/08/24 11:36:00;;;;;;;1.83;0.80;;;34.80;53.80;;;;;;6333968;22;20171;-83
2023/08/24 11:38:38;;;;;;;1.92;1.58;;;34.90;53.80;;;;;;6336897;22;20161;-86
2023/08/24 11:41:14;;;;;;;0.50;0.50;;;34.90;53.70;;;;;;6335645;22;20231;-84
2023/08/24 11:43:43;;;;;;;1.63;1.08;;;34.90;53.60;;;;;;6337325;22;20477;-84
2023/08/24 11:46:12;;;;;;;2.05;0.90;;;34.90;53.20;;;;;;6335269;22;20771;-85
2023/08/24 11:48:41;;;;;;;1.10;1.00;;;34.90;53.10;;;;;;6336281;22;20171;-84
2023/08/24 11:51:12;;;;;;;0.70;0.70;;;35.00;53.00;;;;;;6336101;22;20195;-86
2023/08/24 11:53:43;;;;;;;0.73;0.40;;;35.00;53.20;;;;;;6337639;22;20153;-85
2023/08/24 11:56:12;;;;;;;0.45;0.45;;;35.10;52.90;;;;;;6333712;22;20203;-85
2023/08/24 11:58:41;;;;;;;0.30;0.30;;;35.10;53.00;;;;;;6336676;22;20172;-84
2023/08/24 12:01:10;;;;;;;0.77;0.77;;;35.20;53.10;;;;;;6335748;22;20229;-85
2023/08/24 12:03:39;;;;;;;2.00;1.35;;;35.20;53.10;;;;;;6336465;22;20472;-85
2023/08/24 12:06:14;;;;;;;0.70;0.63;;;35.20;52.60;;;;;;6336439;22;20169;-83
2023/08/24 12:08:43;;;;;;;1.23;0.70;;;35.30;52.70;;;;;;6337131;22;20156;-86
2023/08/24 12:11:16;;;;;;;0.73;0.60;;;35.30;52.70;;;;;;6336045;22;20196;-83
2023/08/24 12:13:46;;;;;;;1.38;0.93;;;35.30;52.50;;;;;;6336332;22;20606;-83
2023/08/24 12:16:17;;;;;;;1.10;1.00;;;35.40;52.60;;;;;;6335716;22;20153;-83
2023/08/24 12:18:51;;;;;;;0.70;0.50;;;35.40;52.50;;;;;;6334423;22;20176;-85
2023/08/24 12:21:22;;;;;;;4.90;0.88;;;35.40;52.40;;;;;;6332454;22;20195;-83
2023/08/24 12:23:57;;;;;;;1.20;0.73;;;35.40;52.40;;;;;;6336726;22;20457;-82
2023/08/24 12:26:27;;;;;;;0.90;0.82;;;35.50;52.40;;;;;;6336161;22;20165;-85
2023/08/24 12:29:00;;;;;;;3.30;1.70;;;35.50;52.00;;;;;;6334907;22;20167;-85
2023/08/24 12:31:29;;;;;;;2.67;1.15;;;35.50;52.00;;;;;;6336056;22;20184;-86
2023/08/24 12:34:03;;;;;;;1.10;0.57;;;35.60;51.90;;;;;;6336639;22;20164;-84
2023/08/24 12:36:35;;;;;;;0.55;0.55;;;35.60;51.80;;;;;;6336105;22;20160;-85
2023/08/24 12:39:05;;;;;;;0.88;0.68;;;35.60;51.70;;;;;;6334443;22;20156;-85
2023/08/24 12:41:34;;;;;;;1.15;0.75;;;35.70;51.50;;;;;;6334871;22;20218;-84
2023/08/24 12:44:05;;;;;;;2.03;0.65;;;35.70;52.10;;;;;;6334971;22;20160;-87
2023/08/24 12:46:34;;;;;;;0.70;0.70;;;35.70;51.50;;;;;;6335680;22;20164;-85
2023/08/24 12:49:02;;;;;;;1.73;0.88;;;35.70;50.80;;;;;;6334114;22;20167;-85
2023/08/24 12:51:32;;;;;;;1.38;0.98;;;35.70;50.80;;;;;;6335639;22;20266;-85
2023/08/24 12:54:00;;;;;;;1.10;0.88;;;35.80;50.90;;;;;;6334700;22;20176;-89
2023/08/24 12:56:29;;;;;;;0.50;0.50;;;35.80;51.00;;;;;;6337016;22;20195;-85
2023/08/24 12:59:00;;;;;;;0.38;0.38;;;35.80;50.80;;;;;;6333411;22;20286;-85
2023/08/24 13:01:29;;;;;;;1.17;0.93;;;35.80;50.90;;;;;;6332549;22;20256;-86
2023/08/24 13:03:57;;;;;;;1.10;0.70;;;35.90;51.00;;;;;;6335944;22;20923;-83
2023/08/24 13:06:25;;;;;;;0.38;0.38;;;35.80;50.80;;;;;;6335689;22;20251;-83
2023/08/24 13:08:55;;;;;;;0.60;0.60;;;35.90;50.90;;;;;;6334322;22;20168;-82